Pagina principale
METAR-TAF:

METAR-TAF

Aeroporti :

Calvinia, Sudafrica

latitudine: 31-28-56S, longitudine: 19-45-43E, altezza: 977 m

Osservazione

Il bollettino è stato emesso 5 ore e 4 minuti fa, alle 08:34 UTC
Vento 4 kt da ovest
Temperature 20°C
Umidità 56%
Pressione 1011 hPa
Visibilità 10 km o più
Poco nuvoloso ad un'altezza di 2500 ft
Nubi sparse ad un'altezza di 3000 ft

METAR: FACV 190834Z 27004KT 9999 FEW025 SCT030 20/11 Q1011

Ora: 15:38 (13:38 UTC)


TAF: mancante

Osservazioni e previsioni meteorologiche di più di 4000 aeroporti (messaggi METAR e TAF).

Le stazioni disponibili sono rappresentate dai dischi gialli e rossi sulla carta.

Puntare il mouse per vedere il nome della stazione.

Clicca sopra per visualizzare le osservazioni e previsioni meteorologiche.

Per cambiare la mappa : fare clic sui pulsanti verdi con una croce nera per ingrandire, il pulsante verde con un trattino per diminuire, o sulla freccia verde per le mappe adiacenti.


METAR-TAF: